createdAt,value
2018-09-09T00:00:59.414Z,70.70
2018-09-09T00:03:28.576Z,71.10
2018-09-09T00:05:57.380Z,71.00
2018-09-09T00:08:26.499Z,71.00
2018-09-09T00:10:55.592Z,71.30
2018-09-09T00:13:24.700Z,72.00
2018-09-09T00:15:53.824Z,71.70
2018-09-09T00:18:22.607Z,71.80
2018-09-09T00:20:51.391Z,71.40
2018-09-09T00:23:20.641Z,71.00
2018-09-09T00:25:49.656Z,72.00
2018-09-09T00:28:18.461Z,71.80
2018-09-09T00:30:47.668Z,71.50
2018-09-09T00:33:16.459Z,71.70
2018-09-09T00:35:45.603Z,71.00
2018-09-09T00:38:14.407Z,71.20
2018-09-09T00:40:43.506Z,71.40
2018-09-09T00:43:12.620Z,72.00
2018-09-09T00:45:41.444Z,72.50
2018-09-09T00:48:10.508Z,72.50
2018-09-09T00:50:44.683Z,72.90
2018-09-09T00:53:18.867Z,72.90
2018-09-09T00:55:48.023Z,72.80
2018-09-09T00:58:17.205Z,73.00
2018-09-09T01:00:51.336Z,72.80
2018-09-09T01:03:20.475Z,72.90
2018-09-09T01:05:49.654Z,72.70
2018-09-09T01:08:18.815Z,72.50
2018-09-09T01:10:47.795Z,71.70
2018-09-09T01:13:16.585Z,72.40
2018-09-09T01:15:45.585Z,73.40
2018-09-09T01:18:14.563Z,73.80
2018-09-09T01:20:43.581Z,73.30
2018-09-09T01:23:12.383Z,73.00
2018-09-09T01:25:41.190Z,73.20
2018-09-09T01:28:10.340Z,72.60
2018-09-09T01:30:39.418Z,72.10
2018-09-09T01:33:08.507Z,73.30
2018-09-09T01:35:37.749Z,73.00
2018-09-09T01:38:06.706Z,73.30
2018-09-09T01:40:35.815Z,73.30
2018-09-09T01:43:05.017Z,73.20
2018-09-09T01:45:34.264Z,73.90
2018-09-09T01:48:03.385Z,73.60
2018-09-09T01:50:32.494Z,73.80
2018-09-09T01:53:01.798Z,74.20
2018-09-09T01:55:30.813Z,74.70
2018-09-09T01:57:59.817Z,74.60
2018-09-09T02:00:28.744Z,74.70
2018-09-09T02:02:58.086Z,74.30
2018-09-09T02:05:27.266Z,74.20
2018-09-09T02:07:56.245Z,74.30
2018-09-09T02:10:25.028Z,74.40
2018-09-09T02:12:54.017Z,73.70
2018-09-09T02:15:23.033Z,74.30
2018-09-09T02:17:52.122Z,74.20
2018-09-09T02:20:21.339Z,73.70
2018-09-09T02:22:50.416Z,74.00
2018-09-09T02:25:19.426Z,74.50
2018-09-09T02:27:48.635Z,75.10
2018-09-09T02:30:17.697Z,74.60
2018-09-09T02:32:46.808Z,74.30
2018-09-09T02:35:15.808Z,74.70
2018-09-09T02:37:44.864Z,74.60
2018-09-09T02:40:14.004Z,73.80
2018-09-09T02:42:43.164Z,73.30
2018-09-09T02:45:12.273Z,73.20
2018-09-09T02:47:41.247Z,73.90
2018-09-09T02:50:10.248Z,74.80
2018-09-09T02:52:39.397Z,75.00
2018-09-09T02:55:08.182Z,75.30
2018-09-09T02:57:37.290Z,75.00
2018-09-09T03:00:06.899Z,75.00
2018-09-09T03:02:35.941Z,75.90
2018-09-09T03:05:05.059Z,75.50
2018-09-09T03:07:34.221Z,75.10
2018-09-09T03:10:03.207Z,75.50
2018-09-09T03:12:32.293Z,74.90
2018-09-09T03:15:01.304Z,76.20
2018-09-09T03:17:30.417Z,75.70
2018-09-09T03:19:59.589Z,76.20
2018-09-09T03:22:29.081Z,76.00
2018-09-09T03:24:58.171Z,76.30
2018-09-09T03:27:27.367Z,76.70
2018-09-09T03:29:56.404Z,76.60
2018-09-09T03:32:25.463Z,76.70
2018-09-09T03:34:54.457Z,76.70
2018-09-09T03:37:23.477Z,76.70
2018-09-09T03:39:52.668Z,77.10
2018-09-09T03:42:21.646Z,76.70
2018-09-09T03:44:50.741Z,76.80
2018-09-09T03:47:19.844Z,77.70
2018-09-09T03:49:48.850Z,77.10
2018-09-09T03:52:17.904Z,76.60
2018-09-09T03:54:47.064Z,78.50
2018-09-09T03:57:16.091Z,79.20
2018-09-09T03:59:45.320Z,79.60
2018-09-09T04:02:14.403Z,80.40
2018-09-09T04:04:43.365Z,80.30
2018-09-09T04:07:12.443Z,80.10
2018-09-09T04:09:41.585Z,80.70
2018-09-09T04:12:10.693Z,80.80
2018-09-09T04:14:39.780Z,80.70
2018-09-09T04:17:08.861Z,80.70
2018-09-09T04:19:37.912Z,81.50
2018-09-09T04:22:07.071Z,81.80
2018-09-09T04:24:36.040Z,81.90
2018-09-09T04:27:05.145Z,81.40
2018-09-09T04:29:34.093Z,81.70
2018-09-09T04:32:03.282Z,81.30
2018-09-09T04:34:32.441Z,81.60
2018-09-09T04:37:01.233Z,82.00
2018-09-09T04:39:30.201Z,81.90
2018-09-09T04:41:59.338Z,82.90
2018-09-09T04:44:28.344Z,82.30
2018-09-09T04:46:57.510Z,82.60
2018-09-09T04:49:26.486Z,83.00
2018-09-09T04:51:55.495Z,84.10
2018-09-09T04:54:24.584Z,84.40
2018-09-09T04:56:53.613Z,84.00
2018-09-09T04:59:22.768Z,84.30
2018-09-09T05:01:51.606Z,84.40
2018-09-09T05:04:20.753Z,84.10
2018-09-09T05:06:49.945Z,84.40
2018-09-09T05:09:19.185Z,85.40
2018-09-09T05:11:48.223Z,85.60
2018-09-09T05:14:17.345Z,84.60
2018-09-09T05:16:46.422Z,85.70
2018-09-09T05:19:15.626Z,85.10
2018-09-09T05:21:44.865Z,86.80
2018-09-09T05:24:14.139Z,86.90
2018-09-09T05:26:43.320Z,87.20
2018-09-09T05:29:12.409Z,88.50
2018-09-09T05:31:41.583Z,87.90
2018-09-09T05:34:10.674Z,88.10
2018-09-09T05:36:39.704Z,88.00
2018-09-09T05:39:10.709Z,89.20
2018-09-09T05:41:39.975Z,89.60
2018-09-09T05:44:09.121Z,90.10
2018-09-09T05:46:38.353Z,90.40
2018-09-09T05:49:07.418Z,90.60
2018-09-09T05:51:36.512Z,90.90
2018-09-09T05:54:05.608Z,90.90
2018-09-09T05:56:34.723Z,91.40
2018-09-09T05:59:03.783Z,91.80
2018-09-09T06:01:32.841Z,91.80
2018-09-09T06:04:01.927Z,92.00
2018-09-09T06:06:30.891Z,91.60
2018-09-09T06:08:59.974Z,91.10
2018-09-09T06:11:29.220Z,91.00
2018-09-09T06:13:58.176Z,91.40
2018-09-09T06:16:27.255Z,91.20
2018-09-09T06:18:56.113Z,92.40
2018-09-09T06:21:25.148Z,92.70
2018-09-09T06:23:54.271Z,92.30
2018-09-09T06:26:23.347Z,92.80
2018-09-09T06:28:52.423Z,93.30
2018-09-09T06:31:21.524Z,92.90
2018-09-09T06:33:50.997Z,93.70
2018-09-09T06:36:20.082Z,93.40
2018-09-09T06:38:49.335Z,94.60
2018-09-09T06:41:18.531Z,94.00
2018-09-09T06:45:53.932Z,94.30
2018-09-09T06:49:32.865Z,95.50
2018-09-09T06:52:02.012Z,95.40
2018-09-09T06:54:31.195Z,94.60
2018-09-09T06:57:00.324Z,94.50
2018-09-09T06:59:29.496Z,94.40
2018-09-09T07:01:58.589Z,94.70
2018-09-09T07:04:27.677Z,95.10
2018-09-09T07:06:56.448Z,95.70
2018-09-09T07:09:25.318Z,95.30
2018-09-09T07:11:54.439Z,95.20
2018-09-09T07:14:23.550Z,95.20
2018-09-09T07:16:52.637Z,95.00
2018-09-09T07:19:21.837Z,95.40
2018-09-09T07:21:51.918Z,95.10
2018-09-09T07:24:20.699Z,94.90
2018-09-09T07:26:49.847Z,95.50
2018-09-09T07:29:18.832Z,94.10
2018-09-09T07:31:47.922Z,94.60
2018-09-09T07:34:17.173Z,94.40
2018-09-09T07:36:46.042Z,94.30
2018-09-09T07:39:14.837Z,94.20
2018-09-09T07:41:43.899Z,94.30
2018-09-09T07:44:12.672Z,93.90
2018-09-09T07:46:41.705Z,93.30
2018-09-09T07:49:10.855Z,93.40
2018-09-09T07:51:39.962Z,93.00
2018-09-09T07:54:09.212Z,92.30
2018-09-09T07:56:38.341Z,91.80
2018-09-09T07:59:07.382Z,91.90
2018-09-09T08:01:36.284Z,91.90
2018-09-09T08:04:05.555Z,92.20
2018-09-09T08:06:34.841Z,91.40
2018-09-09T08:09:04.229Z,91.40
2018-09-09T08:11:37.804Z,91.60
2018-09-09T08:14:08.123Z,91.70
2018-09-09T08:16:37.493Z,91.30
2018-09-09T08:19:06.773Z,90.70
2018-09-09T08:21:36.003Z,91.00
2018-09-09T08:24:04.923Z,90.30
2018-09-09T08:26:34.060Z,89.50
2018-09-09T08:29:03.314Z,90.50
2018-09-09T08:31:32.462Z,88.50
2018-09-09T08:34:01.545Z,89.00
2018-09-09T08:36:30.663Z,88.10
2018-09-09T08:38:59.706Z,87.00
2018-09-09T08:41:28.961Z,86.60
2018-09-09T08:43:58.146Z,88.00
2018-09-09T08:46:27.211Z,88.40
2018-09-09T08:48:56.215Z,88.10
2018-09-09T08:51:25.319Z,88.70
2018-09-09T08:53:54.404Z,88.40
2018-09-09T08:56:23.516Z,90.10
2018-09-09T08:58:52.399Z,88.10
2018-09-09T09:01:21.691Z,87.80
2018-09-09T09:03:50.684Z,88.50
2018-09-09T09:06:19.791Z,87.50
2018-09-09T09:08:48.593Z,85.30
2018-09-09T09:11:17.440Z,84.20
2018-09-09T09:13:46.555Z,85.10
2018-09-09T09:16:15.382Z,82.40
2018-09-09T09:18:44.638Z,81.60
2018-09-09T09:21:13.720Z,81.10
2018-09-09T09:23:42.957Z,81.60
2018-09-09T09:26:11.943Z,82.60
2018-09-09T09:28:41.026Z,80.10
2018-09-09T09:31:10.253Z,81.30
2018-09-09T09:33:39.440Z,81.10
2018-09-09T09:36:08.698Z,78.40
2018-09-09T09:38:37.806Z,77.80
2018-09-09T09:41:07.125Z,79.60
2018-09-09T09:43:36.002Z,77.70
2018-09-09T09:46:05.196Z,78.90
2018-09-09T09:48:34.073Z,80.50
2018-09-09T09:51:03.380Z,80.50
2018-09-09T09:53:32.487Z,80.20
2018-09-09T09:56:01.361Z,79.80
2018-09-09T09:58:30.177Z,81.20
2018-09-09T10:00:59.703Z,78.20
2018-09-09T10:03:29.029Z,76.60
2018-09-09T10:05:58.071Z,77.30
2018-09-09T10:08:27.016Z,76.10
2018-09-09T10:10:55.849Z,74.70
2018-09-09T10:13:24.696Z,76.40
2018-09-09T10:15:53.520Z,77.80
2018-09-09T10:18:22.530Z,76.00
2018-09-09T10:20:51.343Z,76.70
2018-09-09T10:23:20.483Z,76.30
2018-09-09T10:25:49.603Z,79.10
2018-09-09T10:28:18.684Z,73.60
2018-09-09T10:30:47.758Z,76.50
2018-09-09T10:33:16.865Z,76.20
2018-09-09T10:35:45.965Z,73.30
2018-09-09T10:38:14.937Z,74.50
2018-09-09T10:40:44.099Z,73.30
2018-09-09T10:43:12.969Z,73.20
2018-09-09T10:45:42.160Z,73.70
2018-09-09T10:48:11.152Z,72.10
2018-09-09T10:50:40.339Z,72.50
2018-09-09T10:53:09.537Z,73.70
2018-09-09T10:55:38.414Z,73.90
2018-09-09T10:58:07.522Z,76.20
2018-09-09T11:00:36.687Z,75.00
2018-09-09T11:03:05.889Z,75.80
2018-09-09T11:05:35.013Z,73.50
2018-09-09T11:08:04.015Z,74.60
2018-09-09T11:10:33.199Z,74.30
2018-09-09T11:13:02.092Z,74.20
2018-09-09T11:15:31.165Z,73.40
2018-09-09T11:18:00.254Z,73.40
2018-09-09T11:20:31.058Z,72.60
2018-09-09T11:22:59.903Z,73.40
2018-09-09T11:25:28.964Z,75.70
2018-09-09T11:27:58.008Z,73.00
2018-09-09T11:30:27.376Z,73.40
2018-09-09T11:32:56.348Z,73.10
2018-09-09T11:35:25.561Z,72.30
2018-09-09T11:37:54.795Z,72.80
2018-09-09T11:40:23.841Z,72.20
2018-09-09T11:42:53.043Z,71.70
2018-09-09T11:45:22.234Z,72.50
2018-09-09T11:47:51.086Z,72.50
2018-09-09T11:50:20.213Z,73.10
2018-09-09T11:52:49.315Z,70.80
2018-09-09T11:55:18.432Z,72.20
2018-09-09T11:57:47.606Z,72.00
2018-09-09T12:00:16.676Z,71.70
2018-09-09T12:02:45.801Z,69.50
2018-09-09T12:05:14.910Z,69.40
2018-09-09T12:07:44.166Z,69.10
2018-09-09T12:10:13.382Z,68.40
2018-09-09T12:12:42.503Z,67.40
2018-09-09T12:15:11.578Z,68.50
2018-09-09T12:17:40.770Z,68.20
2018-09-09T12:20:10.000Z,66.70
2018-09-09T12:22:38.959Z,66.70
2018-09-09T12:25:08.156Z,66.10
2018-09-09T12:27:37.254Z,66.20
2018-09-09T12:30:06.773Z,66.40
2018-09-09T12:32:35.916Z,65.70
2018-09-09T12:35:05.212Z,64.90
2018-09-09T12:37:34.393Z,62.80
2018-09-09T12:40:03.544Z,64.50
2018-09-09T12:42:32.663Z,63.70
2018-09-09T12:45:06.855Z,60.70
2018-09-09T12:47:41.004Z,62.30
2018-09-09T12:50:10.008Z,60.60
2018-09-09T12:52:39.175Z,59.70
2018-09-09T12:55:08.005Z,59.80
2018-09-09T12:57:37.061Z,60.30
2018-09-09T13:00:06.455Z,60.60
2018-09-09T13:02:35.257Z,60.10
2018-09-09T13:05:04.147Z,58.80
2018-09-09T13:07:32.964Z,57.40
2018-09-09T13:10:01.769Z,57.20
2018-09-09T13:12:34.753Z,58.00
2018-09-09T13:15:03.580Z,58.00
2018-09-09T13:17:32.397Z,57.00
2018-09-09T13:20:01.207Z,57.20
2018-09-09T13:22:30.001Z,56.70
2018-09-09T13:24:58.840Z,57.10
2018-09-09T13:27:27.885Z,56.90
2018-09-09T13:29:56.659Z,56.20
2018-09-09T13:32:25.436Z,56.40
2018-09-09T13:34:54.212Z,55.90
2018-09-09T13:37:22.993Z,55.60
2018-09-09T13:39:51.792Z,55.20
2018-09-09T13:42:20.606Z,55.50
2018-09-09T13:44:49.387Z,55.10
2018-09-09T13:47:18.232Z,54.70
2018-09-09T13:49:47.667Z,55.30
2018-09-09T13:52:16.469Z,55.70
2018-09-09T13:54:45.232Z,55.30
2018-09-09T13:57:14.018Z,56.90
2018-09-09T13:59:43.416Z,56.10
2018-09-09T14:02:12.200Z,54.50
2018-09-09T14:04:40.987Z,55.10
2018-09-09T14:07:09.794Z,55.10
2018-09-09T14:09:38.621Z,55.50
2018-09-09T14:12:07.562Z,54.30
2018-09-09T14:14:36.385Z,54.40
2018-09-09T14:17:05.221Z,53.70
2018-09-09T14:19:34.049Z,54.70
2018-09-09T14:22:02.938Z,54.20
2018-09-09T14:24:31.743Z,54.40
2018-09-09T14:27:00.559Z,53.70
2018-09-09T14:29:29.344Z,53.90
2018-09-09T14:31:58.145Z,53.70
2018-09-09T14:34:26.977Z,54.00
2018-09-09T14:36:55.687Z,54.20
2018-09-09T14:39:24.492Z,54.00
2018-09-09T14:41:53.300Z,53.90
2018-09-09T14:44:22.149Z,53.50
2018-09-09T14:46:51.046Z,54.00
2018-09-09T14:49:19.940Z,54.20
2018-09-09T14:51:48.793Z,54.50
2018-09-09T14:54:17.578Z,54.70
2018-09-09T14:56:46.388Z,54.60
2018-09-09T14:59:15.211Z,54.70
2018-09-09T15:01:44.084Z,54.60
2018-09-09T15:04:12.917Z,54.40
2018-09-09T15:06:41.770Z,55.10
2018-09-09T15:09:11.911Z,55.50
2018-09-09T15:11:41.008Z,55.60
2018-09-09T15:14:10.076Z,56.30
2018-09-09T15:16:39.038Z,56.00
2018-09-09T15:19:07.864Z,56.10
2018-09-09T15:21:36.720Z,56.70
2018-09-09T15:24:05.536Z,56.30
2018-09-09T15:26:34.404Z,56.50
2018-09-09T15:29:03.263Z,56.70
2018-09-09T15:31:32.098Z,56.10
2018-09-09T15:34:00.936Z,56.40
2018-09-09T15:36:29.755Z,56.60
2018-09-09T15:38:58.568Z,55.80
2018-09-09T15:41:29.743Z,55.80
2018-09-09T15:43:58.653Z,56.10
2018-09-09T15:46:27.487Z,56.00
2018-09-09T15:48:56.294Z,55.90
2018-09-09T15:51:25.132Z,55.50
2018-09-09T15:53:53.965Z,55.80
2018-09-09T15:56:22.757Z,56.50
2018-09-09T15:58:51.639Z,56.10
2018-09-09T16:01:20.445Z,56.10
2018-09-09T16:03:49.235Z,55.60
2018-09-09T16:06:18.034Z,56.40
2018-09-09T16:08:46.823Z,56.50
2018-09-09T16:11:15.628Z,56.40
2018-09-09T16:13:44.469Z,56.00
2018-09-09T16:16:13.350Z,56.90
2018-09-09T16:18:42.421Z,56.00
2018-09-09T16:21:12.057Z,55.90
2018-09-09T16:23:40.903Z,56.30
2018-09-09T16:26:09.696Z,56.50
2018-09-09T16:28:38.475Z,56.60
2018-09-09T16:31:07.303Z,56.80
2018-09-09T16:33:36.150Z,56.90
2018-09-09T16:36:05.065Z,56.80
2018-09-09T16:38:33.864Z,56.80
2018-09-09T16:41:02.653Z,56.80
2018-09-09T16:43:31.459Z,57.40
2018-09-09T16:46:00.306Z,57.50
2018-09-09T16:48:29.159Z,57.70
2018-09-09T16:50:57.965Z,58.00
2018-09-09T16:53:26.740Z,58.00
2018-09-09T16:55:55.592Z,57.80
2018-09-09T16:58:24.410Z,57.90
2018-09-09T17:00:53.293Z,58.00
2018-09-09T17:03:22.060Z,58.40
2018-09-09T17:05:50.877Z,57.80
2018-09-09T17:08:19.700Z,58.30
2018-09-09T17:10:48.493Z,58.40
2018-09-09T17:13:17.328Z,58.50
2018-09-09T17:15:46.119Z,58.60
2018-09-09T17:18:14.971Z,58.80
2018-09-09T17:20:43.769Z,59.70
2018-09-09T17:23:12.539Z,59.40
2018-09-09T17:25:41.351Z,59.40
2018-09-09T17:28:10.277Z,59.50
2018-09-09T17:30:39.104Z,59.40
2018-09-09T17:33:08.194Z,59.50
2018-09-09T17:35:37.182Z,59.60
2018-09-09T17:38:06.101Z,59.40
2018-09-09T17:40:34.973Z,59.40
2018-09-09T17:43:03.840Z,59.50
2018-09-09T17:45:32.681Z,59.50
2018-09-09T17:48:01.517Z,59.50
2018-09-09T17:50:30.386Z,59.70
2018-09-09T17:52:59.288Z,59.70
2018-09-09T17:55:28.154Z,59.80
2018-09-09T17:57:57.131Z,59.90
2018-09-09T18:00:26.096Z,60.10
2018-09-09T18:02:55.244Z,59.90
2018-09-09T18:05:24.070Z,60.00
2018-09-09T18:07:52.932Z,60.40
2018-09-09T18:10:21.774Z,60.30
2018-09-09T18:12:50.608Z,60.40
2018-09-09T18:15:19.463Z,60.30
2018-09-09T18:17:48.469Z,60.10
2018-09-09T18:20:17.348Z,60.20
2018-09-09T18:22:46.212Z,60.30
2018-09-09T18:25:15.022Z,60.50
2018-09-09T18:27:43.961Z,60.80
2018-09-09T18:30:12.766Z,61.00
2018-09-09T18:32:41.776Z,60.80
2018-09-09T18:35:10.637Z,61.10
2018-09-09T18:37:39.501Z,61.00
2018-09-09T18:40:08.392Z,60.90
2018-09-09T18:42:37.448Z,61.10
2018-09-09T18:45:08.079Z,60.80
2018-09-09T18:47:36.932Z,61.20
2018-09-09T18:50:05.978Z,61.30
2018-09-09T18:52:34.812Z,61.40
2018-09-09T18:55:03.639Z,61.50
2018-09-09T18:57:32.472Z,61.60
2018-09-09T19:00:01.452Z,61.50
2018-09-09T19:02:30.294Z,61.70
2018-09-09T19:04:59.121Z,61.80
2018-09-09T19:07:27.975Z,61.70
2018-09-09T19:09:56.959Z,62.40
2018-09-09T19:12:25.758Z,62.00
2018-09-09T19:14:54.588Z,62.90
2018-09-09T19:17:23.415Z,63.00
2018-09-09T19:19:52.238Z,63.20
2018-09-09T19:22:20.999Z,63.30
2018-09-09T19:24:49.774Z,63.60
2018-09-09T19:27:18.632Z,63.20
2018-09-09T19:29:47.441Z,63.00
2018-09-09T19:32:16.233Z,63.00
2018-09-09T19:34:45.073Z,63.40
2018-09-09T19:37:13.893Z,62.90
2018-09-09T19:39:42.724Z,63.50
2018-09-09T19:44:42.419Z,63.20
2018-09-09T19:47:11.251Z,64.60
2018-09-09T19:49:40.126Z,64.80
2018-09-09T19:52:09.049Z,64.80
2018-09-09T19:54:37.834Z,64.90
2018-09-09T19:57:06.676Z,64.60
2018-09-09T19:59:35.581Z,64.00
2018-09-09T20:02:04.482Z,63.70
2018-09-09T20:04:33.260Z,64.20
2018-09-09T20:07:02.075Z,64.50
2018-09-09T20:09:30.907Z,65.20
2018-09-09T20:12:00.652Z,65.30
2018-09-09T20:14:29.493Z,65.30
2018-09-09T20:16:58.504Z,65.60
2018-09-09T20:19:27.383Z,65.30
2018-09-09T20:21:56.198Z,65.20
2018-09-09T20:24:24.988Z,65.30
2018-09-09T20:26:53.846Z,65.30
2018-09-09T20:29:22.653Z,65.50
2018-09-09T20:31:51.464Z,65.90
2018-09-09T20:34:20.296Z,65.90
2018-09-09T20:36:49.084Z,65.90
2018-09-09T20:39:17.880Z,65.90
2018-09-09T20:41:46.686Z,65.90
2018-09-09T20:44:15.468Z,66.00
2018-09-09T20:46:44.244Z,66.00
2018-09-09T20:49:13.025Z,65.70
2018-09-09T20:51:41.894Z,65.90
2018-09-09T20:54:10.701Z,66.20
2018-09-09T20:56:39.524Z,66.00
2018-09-09T20:59:08.353Z,66.10
2018-09-09T21:01:37.154Z,66.20
2018-09-09T21:04:06.032Z,66.40
2018-09-09T21:06:34.853Z,67.30
2018-09-09T21:09:04.524Z,67.50
2018-09-09T21:11:33.351Z,67.10
2018-09-09T21:14:02.170Z,67.20
2018-09-09T21:16:31.050Z,67.10
2018-09-09T21:18:59.850Z,67.30
2018-09-09T21:21:28.688Z,67.50
2018-09-09T21:23:58.056Z,67.70
2018-09-09T21:26:27.280Z,67.80
2018-09-09T21:28:56.368Z,67.80
2018-09-09T21:31:25.164Z,67.90
2018-09-09T21:33:53.949Z,68.00
2018-09-09T21:36:22.784Z,68.60
2018-09-09T21:38:51.656Z,68.10
2018-09-09T21:41:20.534Z,68.10
2018-09-09T21:43:49.417Z,68.10
2018-09-09T21:46:18.198Z,68.30
2018-09-09T21:48:47.046Z,68.40
2018-09-09T21:51:15.872Z,68.50
2018-09-09T21:53:44.728Z,68.60
2018-09-09T21:56:13.511Z,68.90
2018-09-09T21:58:42.328Z,68.30
2018-09-09T22:01:16.300Z,68.60
2018-09-09T22:03:45.102Z,68.70
2018-09-09T22:06:13.931Z,68.80
2018-09-09T22:08:42.721Z,69.10
2018-09-09T22:11:11.564Z,69.30
2018-09-09T22:13:40.417Z,69.00
2018-09-09T22:16:09.197Z,68.80
2018-09-09T22:18:38.089Z,69.00
2018-09-09T22:21:06.917Z,68.30
2018-09-09T22:23:36.043Z,68.70
2018-09-09T22:26:04.863Z,69.50
2018-09-09T22:28:33.704Z,69.70
2018-09-09T22:31:02.538Z,69.50
2018-09-09T22:33:31.347Z,69.20
2018-09-09T22:36:00.149Z,70.10
2018-09-09T22:38:28.987Z,69.60
2018-09-09T22:40:57.751Z,69.60
2018-09-09T22:43:26.583Z,70.40
2018-09-09T22:45:58.345Z,70.40
2018-09-09T22:48:27.596Z,70.80
2018-09-09T22:50:56.663Z,71.00
2018-09-09T22:53:25.518Z,70.80
2018-09-09T22:55:54.287Z,70.70
2018-09-09T22:58:23.094Z,70.60
2018-09-09T23:00:52.233Z,70.20
2018-09-09T23:03:21.131Z,70.20
2018-09-09T23:05:49.944Z,69.60
2018-09-09T23:08:18.751Z,70.20
2018-09-09T23:10:47.578Z,70.20
2018-09-09T23:13:16.452Z,70.20
2018-09-09T23:15:45.304Z,69.70
2018-09-09T23:18:14.089Z,69.90
2018-09-09T23:20:42.900Z,71.00
2018-09-09T23:23:11.713Z,70.70
2018-09-09T23:25:40.553Z,70.00
2018-09-09T23:28:09.419Z,70.60
2018-09-09T23:30:38.234Z,71.00
2018-09-09T23:33:07.036Z,70.60
2018-09-09T23:35:35.836Z,71.30
2018-09-09T23:38:04.667Z,71.20
2018-09-09T23:40:33.478Z,71.20
2018-09-09T23:43:02.244Z,70.90
2018-09-09T23:45:31.095Z,70.90
2018-09-09T23:47:59.884Z,70.90
2018-09-09T23:50:29.428Z,70.70
2018-09-09T23:52:58.209Z,70.60
2018-09-09T23:55:27.003Z,70.30
2018-09-09T23:57:55.815Z,70.30
